sensor_id;sensor_type;location;lat;lon;timestamp;P1;durP1;ratioP1;P2;durP2;ratioP2
62679;SDS011;48746;55.578;37.902;2022-12-18T00:00:47;14.25;;;5.40;;
62679;SDS011;48746;55.578;37.902;2022-12-18T00:03:14;13.00;;;5.40;;
62679;SDS011;48746;55.578;37.902;2022-12-18T00:05:49;9.63;;;4.97;;
62679;SDS011;48746;55.578;37.902;2022-12-18T00:16:19;7.10;;;3.90;;
62679;SDS011;48746;55.578;37.902;2022-12-18T00:18:47;9.40;;;5.22;;
62679;SDS011;48746;55.578;37.902;2022-12-18T00:21:14;9.93;;;5.38;;
62679;SDS011;48746;55.578;37.902;2022-12-18T00:23:41;12.82;;;6.38;;
62679;SDS011;48746;55.578;37.902;2022-12-18T00:29:15;8.85;;;5.22;;
62679;SDS011;48746;55.578;37.902;2022-12-18T00:31:42;7.15;;;3.97;;
62679;SDS011;48746;55.578;37.902;2022-12-18T00:34:12;10.00;;;4.45;;
62679;SDS011;48746;55.578;37.902;2022-12-18T00:39:49;11.20;;;6.53;;
62679;SDS011;48746;55.578;37.902;2022-12-18T00:42:15;9.57;;;5.40;;
62679;SDS011;48746;55.578;37.902;2022-12-18T00:45:00;9.43;;;5.22;;
62679;SDS011;48746;55.578;37.902;2022-12-18T00:47:28;6.97;;;4.25;;
62679;SDS011;48746;55.578;37.902;2022-12-18T00:49:54;8.27;;;4.95;;
62679;SDS011;48746;55.578;37.902;2022-12-18T00:52:20;6.72;;;4.15;;
62679;SDS011;48746;55.578;37.902;2022-12-18T00:54:47;6.72;;;4.32;;
62679;SDS011;48746;55.578;37.902;2022-12-18T00:57:13;8.63;;;5.57;;
62679;SDS011;48746;55.578;37.902;2022-12-18T00:59:39;10.25;;;4.93;;
62679;SDS011;48746;55.578;37.902;2022-12-18T01:02:05;13.02;;;4.85;;
62679;SDS011;48746;55.578;37.902;2022-12-18T01:04:32;6.10;;;3.97;;
62679;SDS011;48746;55.578;37.902;2022-12-18T01:07:02;7.05;;;4.45;;
62679;SDS011;48746;55.578;37.902;2022-12-18T01:09:28;8.88;;;5.20;;
62679;SDS011;48746;55.578;37.902;2022-12-18T01:11:54;6.15;;;3.60;;
62679;SDS011;48746;55.578;37.902;2022-12-18T01:14:21;7.60;;;4.30;;
62679;SDS011;48746;55.578;37.902;2022-12-18T01:16:48;10.82;;;4.53;;
62679;SDS011;48746;55.578;37.902;2022-12-18T01:19:14;5.85;;;3.40;;
62679;SDS011;48746;55.578;37.902;2022-12-18T01:21:41;7.28;;;5.03;;
62679;SDS011;48746;55.578;37.902;2022-12-18T01:24:07;7.60;;;3.83;;
62679;SDS011;48746;55.578;37.902;2022-12-18T01:26:36;8.88;;;5.00;;
62679;SDS011;48746;55.578;37.902;2022-12-18T01:29:02;7.28;;;4.13;;
62679;SDS011;48746;55.578;37.902;2022-12-18T01:31:30;8.82;;;3.47;;
62679;SDS011;48746;55.578;37.902;2022-12-18T01:34:00;5.40;;;3.67;;
62679;SDS011;48746;55.578;37.902;2022-12-18T01:36:31;5.57;;;3.38;;
62679;SDS011;48746;55.578;37.902;2022-12-18T01:38:59;7.25;;;4.28;;
62679;SDS011;48746;55.578;37.902;2022-12-18T01:41:28;9.02;;;3.85;;
62679;SDS011;48746;55.578;37.902;2022-12-18T01:47:36;8.32;;;4.43;;
62679;SDS011;48746;55.578;37.902;2022-12-18T01:50:13;7.63;;;4.40;;
62679;SDS011;48746;55.578;37.902;2022-12-18T01:52:46;6.03;;;3.45;;
62679;SDS011;48746;55.578;37.902;2022-12-18T01:55:22;6.95;;;4.63;;
62679;SDS011;48746;55.578;37.902;2022-12-18T01:57:50;5.72;;;3.88;;
62679;SDS011;48746;55.578;37.902;2022-12-18T02:00:19;7.50;;;4.40;;
62679;SDS011;48746;55.578;37.902;2022-12-18T02:02:47;9.07;;;5.30;;
62679;SDS011;48746;55.578;37.902;2022-12-18T02:08:34;7.93;;;5.18;;
62679;SDS011;48746;55.578;37.902;2022-12-18T02:14:07;13.00;;;5.70;;
62679;SDS011;48746;55.578;37.902;2022-12-18T02:16:57;10.23;;;6.25;;
62679;SDS011;48746;55.578;37.902;2022-12-18T02:28:14;15.60;;;10.13;;
62679;SDS011;48746;55.578;37.902;2022-12-18T02:30:41;16.75;;;10.20;;
62679;SDS011;48746;55.578;37.902;2022-12-18T02:33:08;15.48;;;8.68;;
62679;SDS011;48746;55.578;37.902;2022-12-18T02:35:40;12.40;;;7.85;;
62679;SDS011;48746;55.578;37.902;2022-12-18T02:38:08;9.32;;;6.00;;
62679;SDS011;48746;55.578;37.902;2022-12-18T02:40:36;12.05;;;6.38;;
62679;SDS011;48746;55.578;37.902;2022-12-18T02:43:07;11.63;;;6.22;;
62679;SDS011;48746;55.578;37.902;2022-12-18T02:45:49;8.85;;;5.35;;
62679;SDS011;48746;55.578;37.902;2022-12-18T02:48:19;9.93;;;6.45;;
62679;SDS011;48746;55.578;37.902;2022-12-18T02:53:37;10.82;;;5.82;;
62679;SDS011;48746;55.578;37.902;2022-12-18T02:56:29;10.50;;;5.35;;
62679;SDS011;48746;55.578;37.902;2022-12-18T03:00:03;8.43;;;4.93;;
62679;SDS011;48746;55.578;37.902;2022-12-18T03:02:20;5.30;;;3.90;;
62679;SDS011;48746;55.578;37.902;2022-12-18T03:05:01;6.97;;;4.63;;
62679;SDS011;48746;55.578;37.902;2022-12-18T03:07:34;9.07;;;4.97;;
62679;SDS011;48746;55.578;37.902;2022-12-18T03:10:07;9.02;;;4.82;;
62679;SDS011;48746;55.578;37.902;2022-12-18T03:12:37;6.82;;;3.85;;
62679;SDS011;48746;55.578;37.902;2022-12-18T03:18:17;4.40;;;3.42;;
62679;SDS011;48746;55.578;37.902;2022-12-18T03:20:51;7.72;;;4.40;;
62679;SDS011;48746;55.578;37.902;2022-12-18T03:23:21;10.00;;;5.53;;
62679;SDS011;48746;55.578;37.902;2022-12-18T03:25:54;9.32;;;5.25;;
62679;SDS011;48746;55.578;37.902;2022-12-18T03:28:24;9.30;;;4.90;;
62679;SDS011;48746;55.578;37.902;2022-12-18T03:30:58;9.65;;;5.07;;
62679;SDS011;48746;55.578;37.902;2022-12-18T03:33:35;9.65;;;5.07;;
62679;SDS011;48746;55.578;37.902;2022-12-18T03:36:09;8.25;;;3.80;;
62679;SDS011;48746;55.578;37.902;2022-12-18T03:38:37;8.32;;;4.72;;
62679;SDS011;48746;55.578;37.902;2022-12-18T03:41:16;8.63;;;3.97;;
62679;SDS011;48746;55.578;37.902;2022-12-18T03:55:34;9.70;;;4.55;;
62679;SDS011;48746;55.578;37.902;2022-12-18T03:58:03;6.95;;;3.75;;
62679;SDS011;48746;55.578;37.902;2022-12-18T04:00:40;7.07;;;4.50;;
62679;SDS011;48746;55.578;37.902;2022-12-18T04:03:08;7.85;;;4.05;;
62679;SDS011;48746;55.578;37.902;2022-12-18T04:05:44;9.35;;;4.60;;
62679;SDS011;48746;55.578;37.902;2022-12-18T04:08:13;6.10;;;3.75;;
62679;SDS011;48746;55.578;37.902;2022-12-18T04:10:42;6.70;;;4.63;;
62679;SDS011;48746;55.578;37.902;2022-12-18T04:13:09;7.95;;;4.47;;
62679;SDS011;48746;55.578;37.902;2022-12-18T04:15:38;6.90;;;4.45;;
62679;SDS011;48746;55.578;37.902;2022-12-18T04:18:09;8.30;;;3.95;;
62679;SDS011;48746;55.578;37.902;2022-12-18T04:20:39;5.32;;;3.58;;
62679;SDS011;48746;55.578;37.902;2022-12-18T04:23:05;8.88;;;4.10;;
62679;SDS011;48746;55.578;37.902;2022-12-18T04:28:49;5.85;;;3.90;;
62679;SDS011;48746;55.578;37.902;2022-12-18T04:31:15;10.02;;;5.05;;
62679;SDS011;48746;55.578;37.902;2022-12-18T04:33:41;6.63;;;4.05;;
62679;SDS011;48746;55.578;37.902;2022-12-18T04:39:16;7.57;;;3.45;;
62679;SDS011;48746;55.578;37.902;2022-12-18T04:41:43;6.97;;;3.03;;
62679;SDS011;48746;55.578;37.902;2022-12-18T04:44:11;9.48;;;5.20;;
62679;SDS011;48746;55.578;37.902;2022-12-18T04:46:37;9.10;;;4.55;;
62679;SDS011;48746;55.578;37.902;2022-12-18T04:49:04;6.93;;;3.45;;
62679;SDS011;48746;55.578;37.902;2022-12-18T04:51:30;5.88;;;3.00;;
62679;SDS011;48746;55.578;37.902;2022-12-18T04:53:56;8.45;;;4.38;;
62679;SDS011;48746;55.578;37.902;2022-12-18T04:59:29;6.57;;;3.55;;
62679;SDS011;48746;55.578;37.902;2022-12-18T05:01:55;6.55;;;4.28;;
62679;SDS011;48746;55.578;37.902;2022-12-18T05:04:22;10.57;;;4.20;;
62679;SDS011;48746;55.578;37.902;2022-12-18T05:09:54;10.02;;;5.05;;
62679;SDS011;48746;55.578;37.902;2022-12-18T05:12:21;6.35;;;4.38;;
62679;SDS011;48746;55.578;37.902;2022-12-18T05:14:50;8.25;;;4.53;;
62679;SDS011;48746;55.578;37.902;2022-12-18T05:17:16;6.30;;;4.07;;
62679;SDS011;48746;55.578;37.902;2022-12-18T05:19:42;6.35;;;4.38;;
62679;SDS011;48746;55.578;37.902;2022-12-18T05:22:09;13.63;;;4.93;;
62679;SDS011;48746;55.578;37.902;2022-12-18T05:24:37;7.40;;;4.20;;
62679;SDS011;48746;55.578;37.902;2022-12-18T05:30:11;13.90;;;4.00;;
62679;SDS011;48746;55.578;37.902;2022-12-18T05:32:38;6.75;;;4.00;;
62679;SDS011;48746;55.578;37.902;2022-12-18T05:35:04;12.68;;;4.85;;
62679;SDS011;48746;55.578;37.902;2022-12-18T05:37:32;6.15;;;4.10;;
62679;SDS011;48746;55.578;37.902;2022-12-18T05:39:59;9.75;;;5.38;;
62679;SDS011;48746;55.578;37.902;2022-12-18T05:42:25;6.40;;;4.15;;
62679;SDS011;48746;55.578;37.902;2022-12-18T05:44:52;10.07;;;4.38;;
62679;SDS011;48746;55.578;37.902;2022-12-18T05:47:18;8.95;;;5.28;;
62679;SDS011;48746;55.578;37.902;2022-12-18T05:49:44;7.43;;;4.25;;
62679;SDS011;48746;55.578;37.902;2022-12-18T05:52:10;7.50;;;3.97;;
62679;SDS011;48746;55.578;37.902;2022-12-18T05:54:36;8.38;;;3.67;;
62679;SDS011;48746;55.578;37.902;2022-12-18T06:00:09;6.47;;;3.85;;
62679;SDS011;48746;55.578;37.902;2022-12-18T06:02:37;10.07;;;4.75;;
62679;SDS011;48746;55.578;37.902;2022-12-18T06:05:04;5.80;;;2.97;;
62679;SDS011;48746;55.578;37.902;2022-12-18T06:07:30;9.52;;;4.95;;
62679;SDS011;48746;55.578;37.902;2022-12-18T06:09:56;7.82;;;3.95;;
62679;SDS011;48746;55.578;37.902;2022-12-18T06:12:22;4.32;;;3.33;;
62679;SDS011;48746;55.578;37.902;2022-12-18T06:14:48;7.55;;;4.20;;
62679;SDS011;48746;55.578;37.902;2022-12-18T06:17:14;4.78;;;3.15;;
62679;SDS011;48746;55.578;37.902;2022-12-18T06:19:40;8.88;;;4.00;;
62679;SDS011;48746;55.578;37.902;2022-12-18T06:22:07;6.60;;;3.47;;
62679;SDS011;48746;55.578;37.902;2022-12-18T06:24:33;7.82;;;4.25;;
62679;SDS011;48746;55.578;37.902;2022-12-18T06:30:06;8.27;;;4.13;;
62679;SDS011;48746;55.578;37.902;2022-12-18T06:32:33;7.10;;;4.07;;
62679;SDS011;48746;55.578;37.902;2022-12-18T06:35:00;5.40;;;3.10;;
62679;SDS011;48746;55.578;37.902;2022-12-18T06:37:28;6.50;;;3.47;;
62679;SDS011;48746;55.578;37.902;2022-12-18T06:39:57;7.55;;;4.47;;
62679;SDS011;48746;55.578;37.902;2022-12-18T06:42:24;18.58;;;5.03;;
62679;SDS011;48746;55.578;37.902;2022-12-18T06:44:50;6.97;;;3.55;;
62679;SDS011;48746;55.578;37.902;2022-12-18T06:47:17;6.03;;;3.72;;
62679;SDS011;48746;55.578;37.902;2022-12-18T06:49:43;5.43;;;3.20;;
62679;SDS011;48746;55.578;37.902;2022-12-18T06:52:10;4.75;;;3.03;;
62679;SDS011;48746;55.578;37.902;2022-12-18T06:54:36;7.38;;;4.35;;
62679;SDS011;48746;55.578;37.902;2022-12-18T06:57:05;5.72;;;3.28;;
62679;SDS011;48746;55.578;37.902;2022-12-18T06:59:31;5.88;;;3.78;;
62679;SDS011;48746;55.578;37.902;2022-12-18T07:01:57;5.15;;;2.97;;
62679;SDS011;48746;55.578;37.902;2022-12-18T07:04:30;5.47;;;3.97;;
62679;SDS011;48746;55.578;37.902;2022-12-18T07:06:56;9.52;;;4.55;;
62679;SDS011;48746;55.578;37.902;2022-12-18T07:09:23;6.28;;;4.00;;
62679;SDS011;48746;55.578;37.902;2022-12-18T07:11:49;9.43;;;4.05;;
62679;SDS011;48746;55.578;37.902;2022-12-18T07:14:15;4.72;;;3.22;;
62679;SDS011;48746;55.578;37.902;2022-12-18T07:16:41;4.18;;;2.72;;
62679;SDS011;48746;55.578;37.902;2022-12-18T07:19:08;5.18;;;3.38;;
62679;SDS011;48746;55.578;37.902;2022-12-18T07:21:34;9.35;;;5.80;;
62679;SDS011;48746;55.578;37.902;2022-12-18T07:24:00;7.28;;;3.10;;
62679;SDS011;48746;55.578;37.902;2022-12-18T07:26:29;6.93;;;3.83;;
62679;SDS011;48746;55.578;37.902;2022-12-18T07:28:56;6.25;;;4.10;;
62679;SDS011;48746;55.578;37.902;2022-12-18T07:31:24;10.20;;;4.60;;
62679;SDS011;48746;55.578;37.902;2022-12-18T07:33:51;5.47;;;2.97;;
62679;SDS011;48746;55.578;37.902;2022-12-18T07:36:23;7.40;;;2.55;;
62679;SDS011;48746;55.578;37.902;2022-12-18T07:38:49;6.63;;;4.38;;
62679;SDS011;48746;55.578;37.902;2022-12-18T07:41:16;5.63;;;3.45;;
62679;SDS011;48746;55.578;37.902;2022-12-18T07:43:43;5.65;;;3.65;;
62679;SDS011;48746;55.578;37.902;2022-12-18T07:46:13;6.43;;;4.10;;
62679;SDS011;48746;55.578;37.902;2022-12-18T07:48:40;7.85;;;3.72;;
62679;SDS011;48746;55.578;37.902;2022-12-18T07:51:07;7.38;;;4.15;;
62679;SDS011;48746;55.578;37.902;2022-12-18T07:53:33;10.05;;;4.40;;
62679;SDS011;48746;55.578;37.902;2022-12-18T07:56:14;6.80;;;4.28;;
62679;SDS011;48746;55.578;37.902;2022-12-18T07:58:40;6.15;;;4.00;;
62679;SDS011;48746;55.578;37.902;2022-12-18T08:01:07;8.05;;;4.25;;
62679;SDS011;48746;55.578;37.902;2022-12-18T08:03:35;8.43;;;4.40;;
62679;SDS011;48746;55.578;37.902;2022-12-18T08:06:05;5.95;;;3.58;;
62679;SDS011;48746;55.578;37.902;2022-12-18T08:10:59;4.50;;;2.50;;
62679;SDS011;48746;55.578;37.902;2022-12-18T08:13:26;4.28;;;3.13;;
62679;SDS011;48746;55.578;37.902;2022-12-18T08:15:59;4.80;;;3.50;;
62679;SDS011;48746;55.578;37.902;2022-12-18T08:18:31;5.10;;;3.83;;
62679;SDS011;48746;55.578;37.902;2022-12-18T08:21:13;9.05;;;4.15;;
62679;SDS011;48746;55.578;37.902;2022-12-18T08:23:41;6.03;;;3.75;;
62679;SDS011;48746;55.578;37.902;2022-12-18T08:26:11;7.28;;;4.30;;
62679;SDS011;48746;55.578;37.902;2022-12-18T08:28:38;3.80;;;2.55;;
62679;SDS011;48746;55.578;37.902;2022-12-18T08:31:03;4.25;;;2.78;;
62679;SDS011;48746;55.578;37.902;2022-12-18T08:33:30;7.00;;;4.47;;
62679;SDS011;48746;55.578;37.902;2022-12-18T08:36:00;6.07;;;3.95;;
62679;SDS011;48746;55.578;37.902;2022-12-18T08:38:26;7.53;;;2.30;;
62679;SDS011;48746;55.578;37.902;2022-12-18T08:40:59;6.68;;;3.70;;
62679;SDS011;48746;55.578;37.902;2022-12-18T08:43:26;8.00;;;4.60;;
62679;SDS011;48746;55.578;37.902;2022-12-18T08:46:15;7.03;;;3.40;;
62679;SDS011;48746;55.578;37.902;2022-12-18T08:48:42;7.10;;;4.32;;
62679;SDS011;48746;55.578;37.902;2022-12-18T08:51:08;8.10;;;3.40;;
62679;SDS011;48746;55.578;37.902;2022-12-18T08:53:35;5.20;;;3.17;;
62679;SDS011;48746;55.578;37.902;2022-12-18T08:56:05;7.10;;;4.30;;
62679;SDS011;48746;55.578;37.902;2022-12-18T08:58:31;5.78;;;3.83;;
62679;SDS011;48746;55.578;37.902;2022-12-18T09:01:01;5.32;;;3.05;;
62679;SDS011;48746;55.578;37.902;2022-12-18T09:03:31;5.63;;;3.60;;
62679;SDS011;48746;55.578;37.902;2022-12-18T09:06:01;9.57;;;4.60;;
62679;SDS011;48746;55.578;37.902;2022-12-18T09:08:27;5.78;;;3.30;;
62679;SDS011;48746;55.578;37.902;2022-12-18T09:10:54;8.55;;;4.45;;
62679;SDS011;48746;55.578;37.902;2022-12-18T09:13:21;12.40;;;4.60;;
62679;SDS011;48746;55.578;37.902;2022-12-18T09:15:51;10.65;;;5.05;;
62679;SDS011;48746;55.578;37.902;2022-12-18T09:18:19;7.75;;;4.00;;
62679;SDS011;48746;55.578;37.902;2022-12-18T09:20:46;7.80;;;4.32;;
62679;SDS011;48746;55.578;37.902;2022-12-18T09:23:12;7.80;;;4.00;;
62679;SDS011;48746;55.578;37.902;2022-12-18T09:25:42;7.38;;;3.55;;
62679;SDS011;48746;55.578;37.902;2022-12-18T09:28:12;5.47;;;3.20;;
62679;SDS011;48746;55.578;37.902;2022-12-18T09:30:41;5.13;;;3.42;;
62679;SDS011;48746;55.578;37.902;2022-12-18T09:33:08;4.22;;;2.95;;
62679;SDS011;48746;55.578;37.902;2022-12-18T09:35:38;7.95;;;4.43;;
62679;SDS011;48746;55.578;37.902;2022-12-18T09:38:05;5.30;;;3.42;;
62679;SDS011;48746;55.578;37.902;2022-12-18T09:40:34;5.88;;;3.15;;
62679;SDS011;48746;55.578;37.902;2022-12-18T09:43:03;5.30;;;3.25;;
62679;SDS011;48746;55.578;37.902;2022-12-18T09:45:40;10.23;;;4.18;;
62679;SDS011;48746;55.578;37.902;2022-12-18T09:48:10;8.25;;;4.05;;
62679;SDS011;48746;55.578;37.902;2022-12-18T09:53:31;4.90;;;3.15;;
62679;SDS011;48746;55.578;37.902;2022-12-18T09:56:03;7.32;;;3.90;;
62679;SDS011;48746;55.578;37.902;2022-12-18T09:58:39;5.35;;;4.03;;
62679;SDS011;48746;55.578;37.902;2022-12-18T10:01:28;6.55;;;3.58;;
62679;SDS011;48746;55.578;37.902;2022-12-18T10:03:54;8.45;;;4.50;;
62679;SDS011;48746;55.578;37.902;2022-12-18T10:12:21;5.57;;;3.50;;
62679;SDS011;48746;55.578;37.902;2022-12-18T10:15:06;5.18;;;3.20;;
62679;SDS011;48746;55.578;37.902;2022-12-18T10:20:44;7.10;;;4.18;;
62679;SDS011;48746;55.578;37.902;2022-12-18T10:23:15;9.07;;;3.88;;
62679;SDS011;48746;55.578;37.902;2022-12-18T10:28:50;4.30;;;2.85;;
62679;SDS011;48746;55.578;37.902;2022-12-18T10:31:22;7.13;;;3.95;;
62679;SDS011;48746;55.578;37.902;2022-12-18T10:33:49;5.57;;;3.10;;
62679;SDS011;48746;55.578;37.902;2022-12-18T10:36:15;7.82;;;3.85;;
62679;SDS011;48746;55.578;37.902;2022-12-18T10:38:42;6.95;;;2.97;;
62679;SDS011;48746;55.578;37.902;2022-12-18T10:43:44;7.28;;;3.30;;
62679;SDS011;48746;55.578;37.902;2022-12-18T10:49:23;5.38;;;3.65;;
62679;SDS011;48746;55.578;37.902;2022-12-18T10:54:52;6.13;;;3.00;;
62679;SDS011;48746;55.578;37.902;2022-12-18T10:57:34;5.47;;;3.17;;
62679;SDS011;48746;55.578;37.902;2022-12-18T11:00:20;3.30;;;2.22;;
62679;SDS011;48746;55.578;37.902;2022-12-18T11:02:49;6.93;;;3.53;;
62679;SDS011;48746;55.578;37.902;2022-12-18T11:07:54;5.47;;;2.72;;
62679;SDS011;48746;55.578;37.902;2022-12-18T11:10:22;4.20;;;2.20;;
62679;SDS011;48746;55.578;37.902;2022-12-18T11:12:51;4.97;;;2.85;;
62679;SDS011;48746;55.578;37.902;2022-12-18T11:15:23;6.53;;;3.67;;
62679;SDS011;48746;55.578;37.902;2022-12-18T11:17:53;7.10;;;4.75;;
62679;SDS011;48746;55.578;37.902;2022-12-18T11:22:55;7.43;;;2.83;;
62679;SDS011;48746;55.578;37.902;2022-12-18T11:25:26;5.50;;;3.40;;
62679;SDS011;48746;55.578;37.902;2022-12-18T11:27:56;4.80;;;3.17;;
62679;SDS011;48746;55.578;37.902;2022-12-18T11:35:52;5.43;;;2.83;;
62679;SDS011;48746;55.578;37.902;2022-12-18T11:41:00;5.55;;;3.42;;
62679;SDS011;48746;55.578;37.902;2022-12-18T11:43:34;6.35;;;3.38;;
62679;SDS011;48746;55.578;37.902;2022-12-18T11:46:38;8.73;;;4.00;;
62679;SDS011;48746;55.578;37.902;2022-12-18T11:49:20;7.47;;;3.50;;
62679;SDS011;48746;55.578;37.902;2022-12-18T11:54:44;5.95;;;3.22;;
62679;SDS011;48746;55.578;37.902;2022-12-18T12:29:58;3.53;;;2.22;;
62679;SDS011;48746;55.578;37.902;2022-12-18T12:35:15;7.78;;;3.70;;
62679;SDS011;48746;55.578;37.902;2022-12-18T12:38:05;5.40;;;3.42;;
62679;SDS011;48746;55.578;37.902;2022-12-18T12:40:35;7.22;;;4.00;;
62679;SDS011;48746;55.578;37.902;2022-12-18T12:43:05;5.95;;;3.13;;
62679;SDS011;48746;55.578;37.902;2022-12-18T12:45:44;6.53;;;3.72;;
62679;SDS011;48746;55.578;37.902;2022-12-18T12:49:00;7.28;;;4.25;;
62679;SDS011;48746;55.578;37.902;2022-12-18T12:51:16;6.80;;;3.58;;
62679;SDS011;48746;55.578;37.902;2022-12-18T12:53:46;5.07;;;3.15;;
62679;SDS011;48746;55.578;37.902;2022-12-18T12:56:16;5.47;;;3.15;;
62679;SDS011;48746;55.578;37.902;2022-12-18T13:13:10;4.07;;;2.70;;
62679;SDS011;48746;55.578;37.902;2022-12-18T13:18:54;3.85;;;2.38;;
62679;SDS011;48746;55.578;37.902;2022-12-18T13:21:32;3.85;;;1.73;;
62679;SDS011;48746;55.578;37.902;2022-12-18T13:24:19;9.20;;;3.33;;
62679;SDS011;48746;55.578;37.902;2022-12-18T13:29:56;4.75;;;2.63;;
62679;SDS011;48746;55.578;37.902;2022-12-18T13:32:23;5.28;;;2.50;;
62679;SDS011;48746;55.578;37.902;2022-12-18T13:37:51;4.03;;;2.72;;
62679;SDS011;48746;55.578;37.902;2022-12-18T13:48:33;10.02;;;3.22;;
62679;SDS011;48746;55.578;37.902;2022-12-18T13:51:04;2.75;;;2.00;;
62679;SDS011;48746;55.578;37.902;2022-12-18T13:53:44;3.92;;;2.15;;
62679;SDS011;48746;55.578;37.902;2022-12-18T13:56:21;4.57;;;2.78;;
62679;SDS011;48746;55.578;37.902;2022-12-18T13:59:11;4.88;;;2.03;;
62679;SDS011;48746;55.578;37.902;2022-12-18T14:01:41;3.80;;;2.50;;
62679;SDS011;48746;55.578;37.902;2022-12-18T14:04:16;5.15;;;2.20;;
62679;SDS011;48746;55.578;37.902;2022-12-18T14:06:49;2.60;;;1.67;;
62679;SDS011;48746;55.578;37.902;2022-12-18T14:09:18;3.95;;;2.75;;
62679;SDS011;48746;55.578;37.902;2022-12-18T14:11:52;4.22;;;2.42;;
62679;SDS011;48746;55.578;37.902;2022-12-18T14:14:43;7.22;;;2.63;;
62679;SDS011;48746;55.578;37.902;2022-12-18T14:17:11;6.75;;;3.00;;
62679;SDS011;48746;55.578;37.902;2022-12-18T14:19:40;5.18;;;2.10;;
62679;SDS011;48746;55.578;37.902;2022-12-18T14:22:29;5.20;;;2.42;;
62679;SDS011;48746;55.578;37.902;2022-12-18T14:28:02;7.10;;;3.67;;
62679;SDS011;48746;55.578;37.902;2022-12-18T14:30:34;7.50;;;3.40;;
62679;SDS011;48746;55.578;37.902;2022-12-18T14:35:39;10.27;;;4.45;;
62679;SDS011;48746;55.578;37.902;2022-12-18T14:38:26;7.22;;;2.78;;
62679;SDS011;48746;55.578;37.902;2022-12-18T14:41:14;8.27;;;4.22;;
62679;SDS011;48746;55.578;37.902;2022-12-18T14:43:43;13.48;;;4.85;;
62679;SDS011;48746;55.578;37.902;2022-12-18T14:46:27;11.80;;;4.85;;
62679;SDS011;48746;55.578;37.902;2022-12-18T14:51:49;12.45;;;5.00;;
62679;SDS011;48746;55.578;37.902;2022-12-18T14:54:19;17.80;;;6.32;;
62679;SDS011;48746;55.578;37.902;2022-12-18T14:56:46;14.00;;;5.75;;
62679;SDS011;48746;55.578;37.902;2022-12-18T14:59:24;17.25;;;6.47;;
62679;SDS011;48746;55.578;37.902;2022-12-18T15:04:44;20.63;;;6.82;;
62679;SDS011;48746;55.578;37.902;2022-12-18T15:09:37;21.02;;;6.55;;
62679;SDS011;48746;55.578;37.902;2022-12-18T15:12:04;19.50;;;6.72;;
62679;SDS011;48746;55.578;37.902;2022-12-18T15:14:40;25.63;;;7.60;;
62679;SDS011;48746;55.578;37.902;2022-12-18T15:17:22;12.95;;;5.43;;
62679;SDS011;48746;55.578;37.902;2022-12-18T15:19:50;12.07;;;5.32;;
62679;SDS011;48746;55.578;37.902;2022-12-18T15:25:57;14.27;;;6.05;;
62679;SDS011;48746;55.578;37.902;2022-12-18T15:28:13;9.65;;;5.03;;
62679;SDS011;48746;55.578;37.902;2022-12-18T15:31:06;13.77;;;4.22;;
62679;SDS011;48746;55.578;37.902;2022-12-18T15:36:22;13.95;;;5.68;;
62679;SDS011;48746;55.578;37.902;2022-12-18T15:41:19;8.07;;;4.32;;
62679;SDS011;48746;55.578;37.902;2022-12-18T15:43:47;14.00;;;4.38;;
62679;SDS011;48746;55.578;37.902;2022-12-18T15:46:18;8.07;;;4.68;;
62679;SDS011;48746;55.578;37.902;2022-12-18T15:48:50;7.85;;;3.58;;
62679;SDS011;48746;55.578;37.902;2022-12-18T15:53:51;8.15;;;4.18;;
62679;SDS011;48746;55.578;37.902;2022-12-18T15:56:23;9.88;;;4.57;;
62679;SDS011;48746;55.578;37.902;2022-12-18T15:59:12;6.20;;;3.38;;
62679;SDS011;48746;55.578;37.902;2022-12-18T16:01:46;6.85;;;3.83;;
62679;SDS011;48746;55.578;37.902;2022-12-18T16:04:14;7.38;;;3.47;;
62679;SDS011;48746;55.578;37.902;2022-12-18T16:06:41;6.90;;;3.58;;
62679;SDS011;48746;55.578;37.902;2022-12-18T16:09:08;5.20;;;2.72;;
62679;SDS011;48746;55.578;37.902;2022-12-18T16:11:35;9.95;;;4.25;;
62679;SDS011;48746;55.578;37.902;2022-12-18T16:14:22;15.27;;;5.15;;
62679;SDS011;48746;55.578;37.902;2022-12-18T16:16:52;7.88;;;3.63;;
62679;SDS011;48746;55.578;37.902;2022-12-18T16:19:20;5.82;;;3.38;;
62679;SDS011;48746;55.578;37.902;2022-12-18T16:21:47;7.65;;;3.50;;
62679;SDS011;48746;55.578;37.902;2022-12-18T16:24:15;5.72;;;3.38;;
62679;SDS011;48746;55.578;37.902;2022-12-18T16:26:48;5.10;;;3.40;;
62679;SDS011;48746;55.578;37.902;2022-12-18T16:29:15;6.13;;;3.22;;
62679;SDS011;48746;55.578;37.902;2022-12-18T16:31:42;4.80;;;3.25;;
62679;SDS011;48746;55.578;37.902;2022-12-18T16:36:40;4.72;;;2.60;;
62679;SDS011;48746;55.578;37.902;2022-12-18T16:39:06;8.02;;;3.63;;
62679;SDS011;48746;55.578;37.902;2022-12-18T16:41:32;7.47;;;3.92;;
62679;SDS011;48746;55.578;37.902;2022-12-18T16:43:59;8.40;;;3.15;;
62679;SDS011;48746;55.578;37.902;2022-12-18T16:46:28;5.57;;;3.22;;
62679;SDS011;48746;55.578;37.902;2022-12-18T16:48:56;7.53;;;3.63;;
62679;SDS011;48746;55.578;37.902;2022-12-18T16:51:25;9.05;;;4.07;;
62679;SDS011;48746;55.578;37.902;2022-12-18T16:53:52;5.00;;;2.42;;
62679;SDS011;48746;55.578;37.902;2022-12-18T16:56:22;10.55;;;4.00;;
62679;SDS011;48746;55.578;37.902;2022-12-18T16:58:55;7.32;;;3.78;;
62679;SDS011;48746;55.578;37.902;2022-12-18T17:01:22;5.07;;;3.28;;
62679;SDS011;48746;55.578;37.902;2022-12-18T17:03:52;6.55;;;3.65;;
62679;SDS011;48746;55.578;37.902;2022-12-18T17:06:23;5.72;;;3.83;;
62679;SDS011;48746;55.578;37.902;2022-12-18T17:08:56;9.43;;;3.50;;
62679;SDS011;48746;55.578;37.902;2022-12-18T17:11:27;5.93;;;3.45;;
62679;SDS011;48746;55.578;37.902;2022-12-18T17:13:54;6.15;;;3.78;;
62679;SDS011;48746;55.578;37.902;2022-12-18T17:16:24;8.93;;;4.47;;
62679;SDS011;48746;55.578;37.902;2022-12-18T17:18:54;7.60;;;4.15;;
62679;SDS011;48746;55.578;37.902;2022-12-18T17:21:19;8.43;;;4.60;;
62679;SDS011;48746;55.578;37.902;2022-12-18T17:23:45;8.57;;;4.53;;
62679;SDS011;48746;55.578;37.902;2022-12-18T17:26:14;9.18;;;4.53;;
62679;SDS011;48746;55.578;37.902;2022-12-18T17:28:40;10.43;;;5.07;;
62679;SDS011;48746;55.578;37.902;2022-12-18T17:31:15;10.93;;;5.22;;
62679;SDS011;48746;55.578;37.902;2022-12-18T17:33:47;7.80;;;4.40;;
62679;SDS011;48746;55.578;37.902;2022-12-18T17:36:18;4.05;;;2.72;;
62679;SDS011;48746;55.578;37.902;2022-12-18T17:38:51;8.23;;;3.15;;
62679;SDS011;48746;55.578;37.902;2022-12-18T17:41:18;7.22;;;4.03;;
62679;SDS011;48746;55.578;37.902;2022-12-18T17:43:54;5.85;;;3.85;;
62679;SDS011;48746;55.578;37.902;2022-12-18T17:46:24;5.85;;;3.38;;
62679;SDS011;48746;55.578;37.902;2022-12-18T17:48:51;6.03;;;3.05;;
62679;SDS011;48746;55.578;37.902;2022-12-18T17:51:19;6.93;;;4.38;;
62679;SDS011;48746;55.578;37.902;2022-12-18T17:53:47;7.45;;;4.47;;
62679;SDS011;48746;55.578;37.902;2022-12-18T17:56:17;5.05;;;2.97;;
62679;SDS011;48746;55.578;37.902;2022-12-18T17:58:45;7.82;;;3.63;;
62679;SDS011;48746;55.578;37.902;2022-12-18T18:01:13;5.78;;;3.80;;
62679;SDS011;48746;55.578;37.902;2022-12-18T18:03:41;8.93;;;4.75;;
62679;SDS011;48746;55.578;37.902;2022-12-18T18:06:11;9.00;;;3.47;;
62679;SDS011;48746;55.578;37.902;2022-12-18T18:08:37;8.45;;;4.60;;
62679;SDS011;48746;55.578;37.902;2022-12-18T18:11:04;9.02;;;4.50;;
62679;SDS011;48746;55.578;37.902;2022-12-18T18:13:50;10.00;;;5.07;;
62679;SDS011;48746;55.578;37.902;2022-12-18T18:16:33;10.57;;;4.75;;
62679;SDS011;48746;55.578;37.902;2022-12-18T18:19:03;7.93;;;4.05;;
62679;SDS011;48746;55.578;37.902;2022-12-18T18:21:31;14.35;;;6.07;;